LTBG

Bandırma Airport

Turkey
TAF LTBG 190740Z 1909/1918 03008KT 9999 SCT013 BKN035 BECMG 1912/1914 SCT035
Issued Valid From Valid To
Oct-19 @ 07:40 UTC
(an hour ago)
Oct-19 @ 09:00 UTC
(6 minutes ago)
Oct-19 @ 18:00 UTC
(in 9 hours)
Oct-19 @ 09:00 to Oct-19 @ 12:00
TAF LTBG 190740Z 1909/1918 03008KT 9999 SCT013 BKN035
Wind Visibility Clouds
30° at 8 knots 10,000+ meters
  • Scattered at 1,300' AGL
  • Broken at 3,500' AGL
Becoming Oct-19 @ 12:00 to Oct-19 @ 18:00
BECMG 1912/1914 SCT035
Wind Visibility Clouds
30° at 8 knots 10,000+ meters
  • Scattered at 3,500' AGL
TAF LTBG 190740Z 1909/1918 03008KT 9999 SCT013 BKN035 BECMG 1912/1914 SCT035
Issued Oct-19 @ 07:40 UTC
(an hour ago)
Valid From Oct-19 @ 09:00 UTC
(6 minutes ago)
Valid To Oct-19 @ 18:00 UTC
(in 9 hours)
Oct-19 @ 09:00 - Oct-19 @ 12:00
Wind Visibility
30° at 8 knots 10,000+ meters
Clouds
  • Scattered at 1,300' AGL
  • Broken at 3,500' AGL
Becoming Oct-19 @ 12:00 - Oct-19 @ 18:00
Wind Visibility
30° at 8 knots 10,000+ meters
Clouds
  • Scattered at 3,500' AGL